sensor_id;sensor_type;location;lat;lon;timestamp;pressure;altitude;pressure_sealevel;temperature;humidity
11001;BME280;5553;48.506;8.870;2023-03-03T00:00:58;96633.97;;;-1.08;100.00
11001;BME280;5553;48.506;8.870;2023-03-03T00:03:27;96637.16;;;-1.04;100.00
11001;BME280;5553;48.506;8.870;2023-03-03T00:05:55;96635.63;;;-1.07;100.00
11001;BME280;5553;48.506;8.870;2023-03-03T00:08:25;96644.34;;;-0.85;100.00
11001;BME280;5553;48.506;8.870;2023-03-03T00:10:53;96646.00;;;-0.96;100.00
11001;BME280;5553;48.506;8.870;2023-03-03T00:13:23;96640.56;;;-1.04;100.00
11001;BME280;5553;48.506;8.870;2023-03-03T00:15:53;96641.59;;;-1.17;100.00
11001;BME280;5553;48.506;8.870;2023-03-03T00:18:27;96642.69;;;-0.98;100.00
11001;BME280;5553;48.506;8.870;2023-03-03T00:20:58;96650.47;;;-0.86;100.00
11001;BME280;5553;48.506;8.870;2023-03-03T00:23:34;96646.38;;;-0.89;100.00
11001;BME280;5553;48.506;8.870;2023-03-03T00:26:15;96643.88;;;-0.79;100.00
11001;BME280;5553;48.506;8.870;2023-03-03T00:28:47;96645.78;;;-0.81;100.00
11001;BME280;5553;48.506;8.870;2023-03-03T00:31:17;96646.94;;;-0.74;100.00
11001;BME280;5553;48.506;8.870;2023-03-03T00:33:49;96650.22;;;-0.72;100.00
11001;BME280;5553;48.506;8.870;2023-03-03T00:36:25;96653.41;;;-0.68;100.00
11001;BME280;5553;48.506;8.870;2023-03-03T00:39:11;96647.75;;;-0.74;100.00
11001;BME280;5553;48.506;8.870;2023-03-03T00:41:42;96659.41;;;-0.57;100.00
11001;BME280;5553;48.506;8.870;2023-03-03T00:44:31;96645.84;;;-0.49;100.00
11001;BME280;5553;48.506;8.870;2023-03-03T00:50:16;96638.44;;;-0.42;100.00
11001;BME280;5553;48.506;8.870;2023-03-03T00:52:54;96637.84;;;-0.46;100.00
11001;BME280;5553;48.506;8.870;2023-03-03T00:55:25;96642.00;;;-0.55;100.00
11001;BME280;5553;48.506;8.870;2023-03-03T00:57:54;96644.56;;;-0.43;100.00
11001;BME280;5553;48.506;8.870;2023-03-03T01:00:22;96652.34;;;-0.66;100.00
11001;BME280;5553;48.506;8.870;2023-03-03T01:02:50;96643.38;;;-0.62;100.00
11001;BME280;5553;48.506;8.870;2023-03-03T01:05:22;96645.53;;;-0.67;100.00
11001;BME280;5553;48.506;8.870;2023-03-03T01:07:50;96653.53;;;-0.70;100.00
11001;BME280;5553;48.506;8.870;2023-03-03T01:10:19;96641.75;;;-0.74;100.00
11001;BME280;5553;48.506;8.870;2023-03-03T01:12:48;96638.69;;;-0.90;100.00
11001;BME280;5553;48.506;8.870;2023-03-03T01:15:16;96642.59;;;-0.85;100.00
11001;BME280;5553;48.506;8.870;2023-03-03T01:17:44;96642.59;;;-0.74;100.00
11001;BME280;5553;48.506;8.870;2023-03-03T01:20:14;96639.16;;;-0.97;100.00
11001;BME280;5553;48.506;8.870;2023-03-03T01:22:44;96643.66;;;-0.87;100.00
11001;BME280;5553;48.506;8.870;2023-03-03T01:25:13;96646.22;;;-0.87;100.00
11001;BME280;5553;48.506;8.870;2023-03-03T01:27:41;96639.66;;;-0.91;100.00
11001;BME280;5553;48.506;8.870;2023-03-03T01:30:10;96642.91;;;-0.89;100.00
11001;BME280;5553;48.506;8.870;2023-03-03T01:32:38;96642.19;;;-1.03;100.00
11001;BME280;5553;48.506;8.870;2023-03-03T01:35:08;96641.50;;;-1.05;100.00
11001;BME280;5553;48.506;8.870;2023-03-03T01:37:36;96639.88;;;-1.06;100.00
11001;BME280;5553;48.506;8.870;2023-03-03T01:40:14;96647.50;;;-1.04;100.00
11001;BME280;5553;48.506;8.870;2023-03-03T01:42:43;96650.34;;;-1.07;100.00
11001;BME280;5553;48.506;8.870;2023-03-03T01:45:17;96639.50;;;-1.12;100.00
11001;BME280;5553;48.506;8.870;2023-03-03T01:47:50;96636.44;;;-1.17;100.00
11001;BME280;5553;48.506;8.870;2023-03-03T01:50:38;96638.78;;;-1.14;100.00
11001;BME280;5553;48.506;8.870;2023-03-03T01:53:12;96631.13;;;-1.27;100.00
11001;BME280;5553;48.506;8.870;2023-03-03T01:55:46;96632.66;;;-1.13;100.00
11001;BME280;5553;48.506;8.870;2023-03-03T01:58:19;96632.06;;;-1.17;100.00
11001;BME280;5553;48.506;8.870;2023-03-03T02:00:50;96631.25;;;-1.17;100.00
11001;BME280;5553;48.506;8.870;2023-03-03T02:03:22;96628.88;;;-1.32;100.00
11001;BME280;5553;48.506;8.870;2023-03-03T02:05:54;96625.78;;;-1.37;100.00
11001;BME280;5553;48.506;8.870;2023-03-03T02:08:30;96624.06;;;-1.36;100.00
11001;BME280;5553;48.506;8.870;2023-03-03T02:11:04;96630.38;;;-1.40;100.00
11001;BME280;5553;48.506;8.870;2023-03-03T02:13:33;96622.38;;;-1.49;100.00
11001;BME280;5553;48.506;8.870;2023-03-03T02:16:01;96632.50;;;-1.46;100.00
11001;BME280;5553;48.506;8.870;2023-03-03T02:18:30;96628.22;;;-1.58;100.00
11001;BME280;5553;48.506;8.870;2023-03-03T02:21:04;96619.09;;;-1.75;100.00
11001;BME280;5553;48.506;8.870;2023-03-03T02:23:39;96626.28;;;-1.78;100.00
11001;BME280;5553;48.506;8.870;2023-03-03T02:26:15;96623.75;;;-1.67;100.00
11001;BME280;5553;48.506;8.870;2023-03-03T02:28:44;96624.06;;;-1.72;100.00
11001;BME280;5553;48.506;8.870;2023-03-03T02:31:15;96622.88;;;-1.79;100.00
11001;BME280;5553;48.506;8.870;2023-03-03T02:33:46;96621.09;;;-1.78;100.00
11001;BME280;5553;48.506;8.870;2023-03-03T02:36:18;96617.09;;;-1.82;100.00
11001;BME280;5553;48.506;8.870;2023-03-03T02:38:50;96619.81;;;-1.84;100.00
11001;BME280;5553;48.506;8.870;2023-03-03T02:41:27;96612.25;;;-1.87;100.00
11001;BME280;5553;48.506;8.870;2023-03-03T02:43:59;96612.13;;;-1.85;100.00
11001;BME280;5553;48.506;8.870;2023-03-03T02:46:31;96616.25;;;-1.94;100.00
11001;BME280;5553;48.506;8.870;2023-03-03T02:49:00;96619.25;;;-2.00;100.00
11001;BME280;5553;48.506;8.870;2023-03-03T02:51:29;96607.34;;;-2.14;100.00
11001;BME280;5553;48.506;8.870;2023-03-03T02:53:57;96612.06;;;-2.08;100.00
11001;BME280;5553;48.506;8.870;2023-03-03T02:56:28;96616.69;;;-2.00;100.00
11001;BME280;5553;48.506;8.870;2023-03-03T02:58:57;96616.16;;;-2.05;100.00
11001;BME280;5553;48.506;8.870;2023-03-03T03:01:25;96612.06;;;-2.08;100.00
11001;BME280;5553;48.506;8.870;2023-03-03T03:03:56;96604.91;;;-2.04;100.00
11001;BME280;5553;48.506;8.870;2023-03-03T03:06:24;96618.66;;;-2.04;100.00
11001;BME280;5553;48.506;8.870;2023-03-03T03:08:52;96618.69;;;-1.93;100.00
11001;BME280;5553;48.506;8.870;2023-03-03T03:11:21;96618.31;;;-1.99;100.00
11001;BME280;5553;48.506;8.870;2023-03-03T03:13:52;96626.41;;;-2.04;100.00
11001;BME280;5553;48.506;8.870;2023-03-03T03:16:20;96630.47;;;-1.88;100.00
11001;BME280;5553;48.506;8.870;2023-03-03T03:18:48;96628.00;;;-1.90;100.00
11001;BME280;5553;48.506;8.870;2023-03-03T03:21:17;96628.09;;;-1.92;100.00
11001;BME280;5553;48.506;8.870;2023-03-03T03:23:45;96635.84;;;-1.92;100.00
11001;BME280;5553;48.506;8.870;2023-03-03T03:26:13;96631.44;;;-1.78;100.00
11001;BME280;5553;48.506;8.870;2023-03-03T03:28:42;96633.72;;;-1.74;100.00
11001;BME280;5553;48.506;8.870;2023-03-03T03:31:13;96632.78;;;-1.61;100.00
11001;BME280;5553;48.506;8.870;2023-03-03T03:33:41;96638.56;;;-1.58;100.00
11001;BME280;5553;48.506;8.870;2023-03-03T03:36:10;96638.13;;;-1.52;100.00
11001;BME280;5553;48.506;8.870;2023-03-03T03:38:38;96635.28;;;-1.60;100.00
11001;BME280;5553;48.506;8.870;2023-03-03T03:41:07;96637.75;;;-1.58;100.00
11001;BME280;5553;48.506;8.870;2023-03-03T03:43:35;96635.50;;;-1.63;100.00
11001;BME280;5553;48.506;8.870;2023-03-03T03:46:03;96639.72;;;-1.73;100.00
11001;BME280;5553;48.506;8.870;2023-03-03T03:48:34;96650.47;;;-1.55;100.00
11001;BME280;5553;48.506;8.870;2023-03-03T03:51:04;96643.19;;;-1.50;100.00
11001;BME280;5553;48.506;8.870;2023-03-03T03:53:32;96640.63;;;-1.50;100.00
11001;BME280;5553;48.506;8.870;2023-03-03T03:56:00;96640.97;;;-1.44;100.00
11001;BME280;5553;48.506;8.870;2023-03-03T03:58:28;96635.31;;;-1.37;100.00
11001;BME280;5553;48.506;8.870;2023-03-03T04:01:01;96642.66;;;-1.20;100.00
11001;BME280;5553;48.506;8.870;2023-03-03T04:03:30;96644.56;;;-1.22;100.00
11001;BME280;5553;48.506;8.870;2023-03-03T04:06:01;96641.97;;;-1.22;100.00
11001;BME280;5553;48.506;8.870;2023-03-03T04:08:29;96645.72;;;-1.26;100.00
11001;BME280;5553;48.506;8.870;2023-03-03T04:10:57;96644.28;;;-1.30;100.00
11001;BME280;5553;48.506;8.870;2023-03-03T04:13:25;96632.75;;;-1.37;100.00
11001;BME280;5553;48.506;8.870;2023-03-03T04:15:56;96642.41;;;-1.28;100.00
11001;BME280;5553;48.506;8.870;2023-03-03T04:18:24;96633.81;;;-1.29;100.00
11001;BME280;5553;48.506;8.870;2023-03-03T04:20:53;96637.84;;;-1.25;100.00
11001;BME280;5553;48.506;8.870;2023-03-03T04:23:24;96640.28;;;-1.34;100.00
11001;BME280;5553;48.506;8.870;2023-03-03T04:25:52;96641.09;;;-1.45;100.00
11001;BME280;5553;48.506;8.870;2023-03-03T04:28:20;96642.47;;;-1.52;100.00
11001;BME280;5553;48.506;8.870;2023-03-03T04:30:51;96643.44;;;-1.42;100.00
11001;BME280;5553;48.506;8.870;2023-03-03T04:33:19;96641.25;;;-1.24;100.00
11001;BME280;5553;48.506;8.870;2023-03-03T04:35:48;96640.06;;;-1.31;100.00
11001;BME280;5553;48.506;8.870;2023-03-03T04:38:16;96640.78;;;-1.18;100.00
11001;BME280;5553;48.506;8.870;2023-03-03T04:40:47;96646.69;;;-1.05;100.00
11001;BME280;5553;48.506;8.870;2023-03-03T04:43:15;96644.47;;;-1.09;100.00
11001;BME280;5553;48.506;8.870;2023-03-03T04:45:44;96632.09;;;-1.06;100.00
11001;BME280;5553;48.506;8.870;2023-03-03T04:48:12;96641.41;;;-0.92;100.00
11001;BME280;5553;48.506;8.870;2023-03-03T04:50:40;96648.00;;;-0.99;100.00
11001;BME280;5553;48.506;8.870;2023-03-03T04:53:09;96642.22;;;-0.91;100.00
11001;BME280;5553;48.506;8.870;2023-03-03T04:55:37;96636.81;;;-0.88;100.00
11001;BME280;5553;48.506;8.870;2023-03-03T04:58:08;96643.06;;;-0.91;100.00
11001;BME280;5553;48.506;8.870;2023-03-03T05:00:36;96640.22;;;-0.88;100.00
11001;BME280;5553;48.506;8.870;2023-03-03T05:03:05;96648.81;;;-0.87;100.00
11001;BME280;5553;48.506;8.870;2023-03-03T05:05:33;96642.69;;;-0.86;100.00
11001;BME280;5553;48.506;8.870;2023-03-03T05:08:02;96645.28;;;-0.86;100.00
11001;BME280;5553;48.506;8.870;2023-03-03T05:10:30;96644.81;;;-0.91;100.00
11001;BME280;5553;48.506;8.870;2023-03-03T05:12:58;96643.88;;;-0.90;100.00
11001;BME280;5553;48.506;8.870;2023-03-03T05:15:29;96649.06;;;-0.90;100.00
11001;BME280;5553;48.506;8.870;2023-03-03T05:17:57;96647.19;;;-0.88;100.00
11001;BME280;5553;48.506;8.870;2023-03-03T05:20:26;96649.53;;;-0.85;100.00
11001;BME280;5553;48.506;8.870;2023-03-03T05:22:54;96655.88;;;-0.89;100.00
11001;BME280;5553;48.506;8.870;2023-03-03T05:25:24;96655.66;;;-0.75;100.00
11001;BME280;5553;48.506;8.870;2023-03-03T05:27:52;96654.00;;;-0.76;100.00
11001;BME280;5553;48.506;8.870;2023-03-03T05:30:21;96657.31;;;-0.85;100.00
11001;BME280;5553;48.506;8.870;2023-03-03T05:32:52;96664.38;;;-0.87;100.00
11001;BME280;5553;48.506;8.870;2023-03-03T05:35:20;96662.22;;;-0.82;100.00
11001;BME280;5553;48.506;8.870;2023-03-03T05:37:48;96665.09;;;-0.74;100.00
11001;BME280;5553;48.506;8.870;2023-03-03T05:40:17;96664.63;;;-0.68;100.00
11001;BME280;5553;48.506;8.870;2023-03-03T05:42:45;96676.16;;;-0.61;100.00
11001;BME280;5553;48.506;8.870;2023-03-03T05:45:14;96673.31;;;-0.69;100.00
11001;BME280;5553;48.506;8.870;2023-03-03T05:47:44;96678.72;;;-0.94;100.00
11001;BME280;5553;48.506;8.870;2023-03-03T05:50:16;96674.13;;;-0.91;100.00
11001;BME280;5553;48.506;8.870;2023-03-03T05:52:46;96682.72;;;-0.90;100.00
11001;BME280;5553;48.506;8.870;2023-03-03T05:55:15;96682.50;;;-0.87;100.00
11001;BME280;5553;48.506;8.870;2023-03-03T05:57:44;96674.97;;;-0.90;100.00
11001;BME280;5553;48.506;8.870;2023-03-03T06:00:14;96680.03;;;-0.89;100.00
11001;BME280;5553;48.506;8.870;2023-03-03T06:02:42;96685.34;;;-0.68;100.00
11001;BME280;5553;48.506;8.870;2023-03-03T06:05:11;96683.69;;;-0.69;100.00
11001;BME280;5553;48.506;8.870;2023-03-03T06:07:42;96687.22;;;-0.59;100.00
11001;BME280;5553;48.506;8.870;2023-03-03T06:10:10;96687.56;;;-0.63;100.00
11001;BME280;5553;48.506;8.870;2023-03-03T06:12:38;96692.63;;;-0.62;100.00
11001;BME280;5553;48.506;8.870;2023-03-03T06:15:07;96685.09;;;-0.54;100.00
11001;BME280;5553;48.506;8.870;2023-03-03T06:17:36;96691.47;;;-0.58;100.00
11001;BME280;5553;48.506;8.870;2023-03-03T06:20:05;96694.16;;;-0.59;100.00
11001;BME280;5553;48.506;8.870;2023-03-03T06:22:34;96693.56;;;-0.52;100.00
11001;BME280;5553;48.506;8.870;2023-03-03T06:25:05;96692.16;;;-0.56;100.00
11001;BME280;5553;48.506;8.870;2023-03-03T06:27:33;96686.66;;;-0.51;100.00
11001;BME280;5553;48.506;8.870;2023-03-03T06:30:02;96691.56;;;-0.48;100.00
11001;BME280;5553;48.506;8.870;2023-03-03T06:32:31;96696.19;;;-0.74;100.00
11001;BME280;5553;48.506;8.870;2023-03-03T06:34:59;96699.09;;;-0.45;100.00
11001;BME280;5553;48.506;8.870;2023-03-03T06:37:27;96705.38;;;-0.47;100.00
11001;BME280;5553;48.506;8.870;2023-03-03T06:39:55;96705.22;;;-0.35;100.00
11001;BME280;5553;48.506;8.870;2023-03-03T06:42:26;96707.72;;;-0.22;100.00
11001;BME280;5553;48.506;8.870;2023-03-03T06:44:55;96704.53;;;-0.37;100.00
11001;BME280;5553;48.506;8.870;2023-03-03T06:47:23;96706.19;;;-0.36;100.00
11001;BME280;5553;48.506;8.870;2023-03-03T06:49:51;96709.50;;;-0.34;100.00
11001;BME280;5553;48.506;8.870;2023-03-03T06:52:23;96712.31;;;-0.26;100.00
11001;BME280;5553;48.506;8.870;2023-03-03T06:54:54;96715.50;;;-0.33;100.00
11001;BME280;5553;48.506;8.870;2023-03-03T06:57:28;96723.16;;;-0.09;100.00
11001;BME280;5553;48.506;8.870;2023-03-03T07:00:01;96728.22;;;-0.19;100.00
11001;BME280;5553;48.506;8.870;2023-03-03T07:02:37;96731.97;;;-0.12;100.00
11001;BME280;5553;48.506;8.870;2023-03-03T07:05:08;96740.47;;;-0.21;100.00
11001;BME280;5553;48.506;8.870;2023-03-03T07:07:37;96735.63;;;-0.14;100.00
11001;BME280;5553;48.506;8.870;2023-03-03T07:10:17;96745.28;;;-0.05;100.00
11001;BME280;5553;48.506;8.870;2023-03-03T07:12:49;96742.34;;;-0.01;100.00
11001;BME280;5553;48.506;8.870;2023-03-03T07:15:21;96750.00;;;0.01;100.00
11001;BME280;5553;48.506;8.870;2023-03-03T07:17:54;96752.47;;;0.03;100.00
11001;BME280;5553;48.506;8.870;2023-03-03T07:20:29;96739.03;;;0.09;100.00
11001;BME280;5553;48.506;8.870;2023-03-03T07:22:59;96740.34;;;-0.08;100.00
11001;BME280;5553;48.506;8.870;2023-03-03T07:25:30;96744.00;;;-0.22;100.00
11001;BME280;5553;48.506;8.870;2023-03-03T07:28:10;96745.66;;;0.02;100.00
11001;BME280;5553;48.506;8.870;2023-03-03T07:30:42;96753.56;;;0.00;100.00
11001;BME280;5553;48.506;8.870;2023-03-03T07:33:18;96756.50;;;-0.05;100.00
11001;BME280;5553;48.506;8.870;2023-03-03T07:35:52;96744.81;;;0.01;100.00
11001;BME280;5553;48.506;8.870;2023-03-03T07:38:30;96748.56;;;0.19;100.00
11001;BME280;5553;48.506;8.870;2023-03-03T07:41:00;96750.81;;;0.24;100.00
11001;BME280;5553;48.506;8.870;2023-03-03T07:43:34;96754.31;;;0.23;100.00
11001;BME280;5553;48.506;8.870;2023-03-03T07:46:19;96764.66;;;0.45;100.00
11001;BME280;5553;48.506;8.870;2023-03-03T07:48:50;96759.50;;;0.34;100.00
11001;BME280;5553;48.506;8.870;2023-03-03T07:51:21;96757.59;;;0.36;100.00
11001;BME280;5553;48.506;8.870;2023-03-03T07:53:52;96758.50;;;0.46;100.00
11001;BME280;5553;48.506;8.870;2023-03-03T07:56:27;96757.81;;;0.77;100.00
11001;BME280;5553;48.506;8.870;2023-03-03T07:59:02;96760.66;;;0.74;100.00
11001;BME280;5553;48.506;8.870;2023-03-03T08:01:39;96762.63;;;0.81;100.00
11001;BME280;5553;48.506;8.870;2023-03-03T08:04:14;96761.75;;;0.92;100.00
11001;BME280;5553;48.506;8.870;2023-03-03T08:06:45;96773.81;;;0.93;100.00
11001;BME280;5553;48.506;8.870;2023-03-03T08:09:36;96759.25;;;1.02;100.00
11001;BME280;5553;48.506;8.870;2023-03-03T08:12:24;96760.59;;;1.17;100.00
11001;BME280;5553;48.506;8.870;2023-03-03T08:15:11;96750.53;;;0.91;100.00
11001;BME280;5553;48.506;8.870;2023-03-03T08:17:42;96753.34;;;1.00;100.00
11001;BME280;5553;48.506;8.870;2023-03-03T08:20:31;96748.47;;;1.06;100.00
11001;BME280;5553;48.506;8.870;2023-03-03T08:23:05;96748.53;;;1.16;100.00
11001;BME280;5553;48.506;8.870;2023-03-03T08:25:33;96747.69;;;1.15;100.00
11001;BME280;5553;48.506;8.870;2023-03-03T08:28:01;96759.81;;;1.26;100.00
11001;BME280;5553;48.506;8.870;2023-03-03T08:30:32;96753.44;;;1.30;100.00
11001;BME280;5553;48.506;8.870;2023-03-03T08:33:00;96752.28;;;1.44;100.00
11001;BME280;5553;48.506;8.870;2023-03-03T08:35:29;96751.22;;;1.56;100.00
11001;BME280;5553;48.506;8.870;2023-03-03T08:37:57;96751.31;;;1.76;100.00
11001;BME280;5553;48.506;8.870;2023-03-03T08:40:26;96755.13;;;2.02;100.00
11001;BME280;5553;48.506;8.870;2023-03-03T08:42:54;96751.78;;;1.90;100.00
11001;BME280;5553;48.506;8.870;2023-03-03T08:45:22;96742.19;;;1.91;100.00
11001;BME280;5553;48.506;8.870;2023-03-03T08:47:53;96742.59;;;1.86;100.00
11001;BME280;5553;48.506;8.870;2023-03-03T08:50:22;96740.56;;;2.00;100.00
11001;BME280;5553;48.506;8.870;2023-03-03T08:52:51;96734.88;;;2.25;100.00
11001;BME280;5553;48.506;8.870;2023-03-03T08:55:19;96739.72;;;2.49;100.00
11001;BME280;5553;48.506;8.870;2023-03-03T08:57:47;96733.84;;;2.47;100.00
11001;BME280;5553;48.506;8.870;2023-03-03T09:00:17;96726.28;;;2.73;100.00
11001;BME280;5553;48.506;8.870;2023-03-03T09:02:46;96721.50;;;2.59;100.00
11001;BME280;5553;48.506;8.870;2023-03-03T09:05:18;96718.63;;;2.81;100.00
11001;BME280;5553;48.506;8.870;2023-03-03T09:07:48;96716.94;;;3.00;100.00
11001;BME280;5553;48.506;8.870;2023-03-03T09:10:19;96714.34;;;2.90;100.00
11001;BME280;5553;48.506;8.870;2023-03-03T09:12:52;96715.94;;;3.30;100.00
11001;BME280;5553;48.506;8.870;2023-03-03T09:15:24;96710.88;;;3.28;100.00
11001;BME280;5553;48.506;8.870;2023-03-03T09:17:53;96693.91;;;3.05;100.00
11001;BME280;5553;48.506;8.870;2023-03-03T09:20:29;96699.84;;;3.44;100.00
11001;BME280;5553;48.506;8.870;2023-03-03T09:22:59;96704.50;;;3.78;100.00
11001;BME280;5553;48.506;8.870;2023-03-03T09:25:43;96694.31;;;4.12;100.00
11001;BME280;5553;48.506;8.870;2023-03-03T09:28:21;96695.00;;;5.04;100.00
11001;BME280;5553;48.506;8.870;2023-03-03T09:30:52;96682.03;;;4.58;100.00
11001;BME280;5553;48.506;8.870;2023-03-03T09:33:26;96686.72;;;4.90;100.00
11001;BME280;5553;48.506;8.870;2023-03-03T09:36:13;96694.13;;;5.47;100.00
11001;BME280;5553;48.506;8.870;2023-03-03T09:38:44;96688.81;;;5.65;100.00
11001;BME280;5553;48.506;8.870;2023-03-03T09:41:44;96676.97;;;5.87;98.78
11001;BME280;5553;48.506;8.870;2023-03-03T09:44:33;96685.53;;;5.63;98.71
11001;BME280;5553;48.506;8.870;2023-03-03T09:47:17;96686.59;;;5.44;97.76
11001;BME280;5553;48.506;8.870;2023-03-03T09:49:57;96684.41;;;5.39;98.33
11001;BME280;5553;48.506;8.870;2023-03-03T09:52:39;96679.59;;;5.53;97.38
11001;BME280;5553;48.506;8.870;2023-03-03T09:55:24;96669.91;;;4.75;96.14
11001;BME280;5553;48.506;8.870;2023-03-03T09:58:10;96687.91;;;5.22;97.23
11001;BME280;5553;48.506;8.870;2023-03-03T10:00:45;96691.47;;;5.39;97.67
11001;BME280;5553;48.506;8.870;2023-03-03T10:06:27;96695.06;;;5.38;98.37
11001;BME280;5553;48.506;8.870;2023-03-03T10:09:26;96681.91;;;5.30;96.64
11001;BME280;5553;48.506;8.870;2023-03-03T10:12:04;96692.28;;;5.74;95.96
11001;BME280;5553;48.506;8.870;2023-03-03T10:15:12;96686.03;;;5.66;95.23
11001;BME280;5553;48.506;8.870;2023-03-03T10:17:48;96683.25;;;5.94;94.57
11001;BME280;5553;48.506;8.870;2023-03-03T10:23:19;96680.38;;;6.13;92.44
11001;BME280;5553;48.506;8.870;2023-03-03T10:25:58;96682.69;;;5.82;92.58
11001;BME280;5553;48.506;8.870;2023-03-03T10:28:54;96674.78;;;6.08;91.50
11001;BME280;5553;48.506;8.870;2023-03-03T10:31:35;96682.75;;;6.65;90.62
11001;BME280;5553;48.506;8.870;2023-03-03T10:34:23;96671.94;;;6.36;89.64
11001;BME280;5553;48.506;8.870;2023-03-03T10:36:54;96671.44;;;6.73;88.11
11001;BME280;5553;48.506;8.870;2023-03-03T10:39:50;96659.97;;;7.07;86.24
11001;BME280;5553;48.506;8.870;2023-03-03T10:42:37;96657.34;;;7.23;84.21
11001;BME280;5553;48.506;8.870;2023-03-03T10:45:29;96659.34;;;6.80;84.71
11001;BME280;5553;48.506;8.870;2023-03-03T10:48:10;96666.34;;;7.21;84.49
11001;BME280;5553;48.506;8.870;2023-03-03T10:50:49;96665.19;;;7.40;84.34
11001;BME280;5553;48.506;8.870;2023-03-03T10:53:26;96661.84;;;7.54;84.10
11001;BME280;5553;48.506;8.870;2023-03-03T10:56:20;96652.75;;;7.25;82.54
11001;BME280;5553;48.506;8.870;2023-03-03T10:59:02;96642.78;;;6.96;82.27
11001;BME280;5553;48.506;8.870;2023-03-03T11:01:42;96669.72;;;8.01;83.03
11001;BME280;5553;48.506;8.870;2023-03-03T11:07:09;96630.06;;;8.88;77.49
11001;BME280;5553;48.506;8.870;2023-03-03T11:09:51;96614.88;;;8.29;75.78
11001;BME280;5553;48.506;8.870;2023-03-03T11:12:33;96617.25;;;7.85;76.96
11001;BME280;5553;48.506;8.870;2023-03-03T11:15:33;96621.94;;;8.98;77.02
11001;BME280;5553;48.506;8.870;2023-03-03T11:18:14;96588.28;;;9.08;73.15
11001;BME280;5553;48.506;8.870;2023-03-03T11:20:50;96584.19;;;8.53;73.73
11001;BME280;5553;48.506;8.870;2023-03-03T11:23:38;96614.91;;;9.72;73.81
11001;BME280;5553;48.506;8.870;2023-03-03T11:26:15;96586.34;;;10.49;69.30
11001;BME280;5553;48.506;8.870;2023-03-03T11:31:45;96555.59;;;11.12;65.42
11001;BME280;5553;48.506;8.870;2023-03-03T11:34:25;96582.41;;;12.60;65.30
11001;BME280;5553;48.506;8.870;2023-03-03T11:37:03;96570.00;;;13.07;63.11
11001;BME280;5553;48.506;8.870;2023-03-03T11:39:33;96551.25;;;12.95;61.03
11001;BME280;5553;48.506;8.870;2023-03-03T11:42:08;96535.16;;;12.43;60.53
11001;BME280;5553;48.506;8.870;2023-03-03T11:44:44;96541.88;;;12.32;61.20
11001;BME280;5553;48.506;8.870;2023-03-03T11:47:21;96538.22;;;13.26;59.11
11001;BME280;5553;48.506;8.870;2023-03-03T11:49:56;96490.59;;;12.14;57.61
11001;BME280;5553;48.506;8.870;2023-03-03T11:52:33;96542.06;;;13.89;58.03
11001;BME280;5553;48.506;8.870;2023-03-03T11:55:09;96510.41;;;13.94;55.61
11001;BME280;5553;48.506;8.870;2023-03-03T11:57:43;96500.81;;;13.55;55.72
11001;BME280;5553;48.506;8.870;2023-03-03T12:00:22;96533.44;;;14.32;55.69
11001;BME280;5553;48.506;8.870;2023-03-03T12:03:23;96516.25;;;14.09;55.29
11001;BME280;5553;48.506;8.870;2023-03-03T12:05:55;96489.91;;;13.18;55.89
11001;BME280;5553;48.506;8.870;2023-03-03T12:08:35;96552.88;;;15.32;54.83
11001;BME280;5553;48.506;8.870;2023-03-03T12:11:12;96470.97;;;13.08;53.73
11001;BME280;5553;48.506;8.870;2023-03-03T12:13:50;96494.56;;;13.36;54.44
11001;BME280;5553;48.506;8.870;2023-03-03T12:16:27;96483.16;;;14.43;51.74
11001;BME280;5553;48.506;8.870;2023-03-03T12:19:14;96472.25;;;12.78;53.38
11001;BME280;5553;48.506;8.870;2023-03-03T12:21:55;96485.06;;;12.95;53.72
11001;BME280;5553;48.506;8.870;2023-03-03T12:24:35;96520.84;;;13.44;54.77
11001;BME280;5553;48.506;8.870;2023-03-03T12:27:12;96517.56;;;13.42;55.05
11001;BME280;5553;48.506;8.870;2023-03-03T12:29:52;96450.66;;;11.89;53.55
11001;BME280;5553;48.506;8.870;2023-03-03T12:32:36;96461.88;;;12.70;52.55
11001;BME280;5553;48.506;8.870;2023-03-03T12:35:18;96472.16;;;13.32;52.63
11001;BME280;5553;48.506;8.870;2023-03-03T12:37:51;96460.34;;;13.27;52.26
11001;BME280;5553;48.506;8.870;2023-03-03T12:40:24;96462.59;;;13.75;51.15
11001;BME280;5553;48.506;8.870;2023-03-03T12:43:03;96443.16;;;12.72;51.40
11001;BME280;5553;48.506;8.870;2023-03-03T15:42:38;96454.69;;;8.95;58.23
11001;BME280;5553;48.506;8.870;2023-03-03T15:45:17;96454.53;;;8.97;58.16
11001;BME280;5553;48.506;8.870;2023-03-03T15:50:25;96459.22;;;8.42;58.96
11001;BME280;5553;48.506;8.870;2023-03-03T15:53:08;96453.97;;;8.19;59.14
11001;BME280;5553;48.506;8.870;2023-03-03T15:55:49;96466.19;;;8.12;60.07
11001;BME280;5553;48.506;8.870;2023-03-03T16:01:23;96476.81;;;8.19;60.00
11001;BME280;5553;48.506;8.870;2023-03-03T16:03:55;96462.50;;;7.75;60.09
11001;BME280;5553;48.506;8.870;2023-03-03T16:06:34;96470.50;;;7.82;60.66
11001;BME280;5553;48.506;8.870;2023-03-03T16:09:10;96472.97;;;7.83;60.74
11001;BME280;5553;48.506;8.870;2023-03-03T16:11:48;96465.78;;;7.77;60.69
11001;BME280;5553;48.506;8.870;2023-03-03T16:14:34;96465.03;;;7.38;61.59
11001;BME280;5553;48.506;8.870;2023-03-03T16:17:09;96474.09;;;7.35;62.12
11001;BME280;5553;48.506;8.870;2023-03-03T16:19:49;96490.66;;;7.58;61.82
11001;BME280;5553;48.506;8.870;2023-03-03T16:22:33;96485.16;;;7.45;61.94
11001;BME280;5553;48.506;8.870;2023-03-03T16:28:04;96504.59;;;7.28;62.60
11001;BME280;5553;48.506;8.870;2023-03-03T16:30:39;96502.22;;;7.18;62.87
11001;BME280;5553;48.506;8.870;2023-03-03T16:33:18;96515.34;;;7.10;63.05
11001;BME280;5553;48.506;8.870;2023-03-03T16:35:57;96512.94;;;6.92;63.10
11001;BME280;5553;48.506;8.870;2023-03-03T16:38:31;96521.47;;;6.86;63.45
11001;BME280;5553;48.506;8.870;2023-03-03T16:41:05;96512.69;;;6.71;63.81
11001;BME280;5553;48.506;8.870;2023-03-03T16:43:42;96525.78;;;6.62;64.33
11001;BME280;5553;48.506;8.870;2023-03-03T16:46:23;96533.66;;;6.54;64.61
11001;BME280;5553;48.506;8.870;2023-03-03T16:49:02;96540.06;;;6.35;64.74
11001;BME280;5553;48.506;8.870;2023-03-03T16:51:40;96546.78;;;6.13;65.50
11001;BME280;5553;48.506;8.870;2023-03-03T16:54:17;96548.72;;;6.03;65.76
11001;BME280;5553;48.506;8.870;2023-03-03T16:56:58;96550.97;;;5.90;66.34
11001;BME280;5553;48.506;8.870;2023-03-03T16:59:41;96550.59;;;5.68;66.95
11001;BME280;5553;48.506;8.870;2023-03-03T17:02:31;96567.88;;;5.53;67.75